Time;durP1;ratioP1;P1;durP2;ratioP2;P2;SDS_P1;SDS_P2;PMS_P1;PMS_P2;Temp;Humidity;BMP_temperature;BMP_pressure;BME280_temperature;BME280_humidity;BME280_pressure;Samples;Min_cycle;Max_cycle;Signal;HPM_P1;HPM_P2
2021/11/17 02:26:17;;;;;;;42.20;26.80;;;4.00;99.90;;;;;;5022854;28;20202;-83
2021/11/17 02:29:31;;;;;;;47.47;26.63;;;4.00;99.90;;;;;;5010317;28;20243;-84
2021/11/17 02:32:08;;;;;;;40.53;25.55;;;4.20;99.90;;;;;;5001899;28;20202;-84
2021/11/17 02:34:47;;;;;;;40.97;26.40;;;4.20;99.90;;;;;;5024825;28;20490;-83
2021/11/17 02:37:21;;;;;;;36.13;24.25;;;4.40;99.90;;;;;;5010855;28;20197;-84
2021/11/17 02:40:19;;;;;;;45.45;24.00;;;4.40;99.90;;;;;;5024117;28;20211;-84
2021/11/17 02:43:23;;;;;;;31.10;21.55;;;4.20;99.90;;;;;;5015985;28;20200;-82
2021/11/17 02:46:39;;;;;;;39.65;24.85;;;4.20;99.90;;;;;;4996369;28;20276;-83
2021/11/17 02:49:35;;;;;;;39.90;24.58;;;4.40;99.90;;;;;;4983775;28;20222;-84
2021/11/17 02:52:17;;;;;;;32.20;22.33;;;4.70;99.90;;;;;;4953876;28;20337;-83
2021/11/17 02:54:47;;;;;;;31.50;21.48;;;4.70;99.90;;;;;;5001226;28;20213;-86
2021/11/17 02:57:31;;;;;;;34.97;23.20;;;5.00;99.90;;;;;;5007632;28;20218;-85
2021/11/17 03:00:56;;;;;;;33.90;21.42;;;5.00;99.90;;;;;;5027634;28;20210;-85
2021/11/17 03:03:36;;;;;;;32.55;21.52;;;5.10;99.90;;;;;;4966354;28;20528;-87
2021/11/17 03:06:31;;;;;;;32.53;22.05;;;5.10;99.90;;;;;;4970914;28;20204;-88
2021/11/17 03:09:21;;;;;;;28.90;20.63;;;5.30;99.90;;;;;;5007816;28;20203;-83
2021/11/17 03:11:58;;;;;;;34.90;22.77;;;5.30;99.90;;;;;;4996456;28;20198;-83
2021/11/17 03:14:34;;;;;;;34.63;21.58;;;5.40;99.90;;;;;;5015902;28;20204;-83
2021/11/17 03:17:35;;;;;;;34.92;20.10;;;5.30;99.90;;;;;;5005538;28;20229;-86
2021/11/17 03:20:15;;;;;;;37.00;22.13;;;5.30;99.90;;;;;;5023942;28;20488;-86
2021/11/17 03:23:01;;;;;;;29.67;19.88;;;5.30;99.90;;;;;;5004066;28;20201;-86
2021/11/17 03:25:34;;;;;;;31.92;20.35;;;5.50;99.90;;;;;;5006560;28;20205;-86
2021/11/17 03:28:31;;;;;;;32.53;20.88;;;5.60;99.90;;;;;;5024703;28;20271;-83
2021/11/17 03:31:10;;;;;;;33.08;21.80;;;5.70;99.90;;;;;;4986047;28;20207;-85
2021/11/17 03:33:50;;;;;;;30.50;22.25;;;5.80;99.90;;;;;;5022485;28;20211;-86
2021/11/17 03:36:39;;;;;;;41.83;23.70;;;5.80;99.90;;;;;;5011486;28;20228;-85
2021/11/17 03:39:22;;;;;;;37.70;23.77;;;5.80;99.90;;;;;;5005383;28;20212;-84
2021/11/17 03:42:07;;;;;;;34.17;22.55;;;5.90;99.90;;;;;;5018819;28;20208;-83
2021/11/17 03:44:57;;;;;;;41.78;24.05;;;5.90;99.90;;;;;;5005152;28;20266;-86
2021/11/17 03:47:42;;;;;;;37.85;23.80;;;6.20;99.90;;;;;;4998196;28;20326;-85
2021/11/17 03:50:39;;;;;;;38.72;24.35;;;6.30;99.90;;;;;;5005491;28;20200;-83
2021/11/17 03:53:28;;;;;;;32.45;21.90;;;6.30;99.90;;;;;;4989411;28;20219;-85
2021/11/17 03:56:14;;;;;;;40.80;26.55;;;6.30;99.90;;;;;;5005144;28;20236;-83
2021/11/17 03:58:55;;;;;;;37.53;25.55;;;6.30;99.90;;;;;;5018758;28;20204;-85
2021/11/17 04:01:36;;;;;;;31.73;22.70;;;6.20;99.90;;;;;;4989238;28;20197;-85
2021/11/17 04:04:19;;;;;;;35.80;24.02;;;6.10;99.90;;;;;;5003938;28;20203;-84
2021/11/17 04:07:09;;;;;;;36.70;23.70;;;6.10;99.90;;;;;;5006002;28;20501;-85
2021/11/17 04:10:12;;;;;;;40.83;23.95;;;6.30;99.90;;;;;;5022229;28;20501;-85
2021/11/17 04:13:00;;;;;;;35.00;23.00;;;6.40;99.90;;;;;;4969455;28;20202;-87
2021/11/17 04:15:48;;;;;;;37.35;25.98;;;6.60;99.90;;;;;;5005184;28;20373;-84
2021/11/17 04:18:16;;;;;;;38.03;23.90;;;6.50;99.90;;;;;;5004162;28;20199;-83
2021/11/17 04:21:10;;;;;;;37.63;26.23;;;6.20;99.90;;;;;;5009821;28;20385;-84
2021/11/17 04:23:56;;;;;;;36.88;24.50;;;6.00;99.90;;;;;;5004510;28;20506;-85
2021/11/17 04:26:42;;;;;;;38.03;27.60;;;6.10;99.90;;;;;;5026223;28;20208;-83
2021/11/17 04:29:51;;;;;;;38.67;27.63;;;6.10;99.90;;;;;;4973529;28;20195;-84
2021/11/17 04:32:53;;;;;;;38.45;26.40;;;6.10;99.90;;;;;;4991012;28;20203;-84
2021/11/17 04:35:39;;;;;;;42.25;25.52;;;6.00;99.90;;;;;;4999458;28;20203;-84
2021/11/17 04:38:06;;;;;;;41.97;24.58;;;6.10;99.90;;;;;;5020344;28;20211;-84
2021/11/17 04:40:50;;;;;;;37.47;26.88;;;6.20;99.90;;;;;;5022344;28;20281;-84
2021/11/17 04:43:50;;;;;;;45.55;27.73;;;6.20;99.90;;;;;;5021670;28;20262;-84
2021/11/17 04:46:22;;;;;;;38.25;24.50;;;6.10;99.90;;;;;;4952213;28;20256;-83
2021/11/17 04:48:53;;;;;;;42.53;27.30;;;6.20;99.90;;;;;;5008234;28;20261;-83
2021/11/17 04:51:38;;;;;;;45.08;26.38;;;6.20;99.90;;;;;;5019342;28;20274;-85
2021/11/17 04:54:05;;;;;;;40.00;27.13;;;6.20;99.90;;;;;;5022046;28;20536;-83
2021/11/17 04:56:58;;;;;;;39.78;26.27;;;6.40;99.90;;;;;;5021952;28;20255;-85
2021/11/17 04:59:48;;;;;;;45.65;27.45;;;6.40;99.90;;;;;;5012082;28;20490;-82
2021/11/17 05:02:28;;;;;;;40.47;26.63;;;6.30;99.90;;;;;;4988060;28;20207;-84
2021/11/17 05:05:26;;;;;;;41.40;26.08;;;6.30;99.90;;;;;;5017681;28;20264;-86
2021/11/17 05:08:17;;;;;;;41.17;26.25;;;6.30;99.90;;;;;;5018390;28;20226;-84
2021/11/17 05:11:12;;;;;;;45.75;28.73;;;6.60;99.90;;;;;;4999121;28;20201;-85
2021/11/17 05:14:02;;;;;;;42.53;26.45;;;6.30;99.90;;;;;;5004241;28;20201;-84
2021/11/17 05:16:51;;;;;;;36.88;24.77;;;6.20;99.90;;;;;;4991323;28;20230;-84
2021/11/17 05:19:33;;;;;;;44.05;27.40;;;6.50;99.90;;;;;;5016179;28;20209;-84
2021/11/17 05:22:35;;;;;;;37.90;27.83;;;6.40;99.90;;;;;;5017482;28;20200;-84
2021/11/17 05:25:18;;;;;;;41.78;26.08;;;6.50;99.90;;;;;;4988581;28;20332;-85
2021/11/17 05:28:03;;;;;;;48.45;30.33;;;6.40;99.90;;;;;;5004520;28;20219;-83
2021/11/17 05:30:37;;;;;;;44.30;27.90;;;6.30;99.90;;;;;;4999899;28;20394;-85
2021/11/17 05:33:36;;;;;;;49.40;28.02;;;6.10;99.90;;;;;;5005180;28;20366;-87
2021/11/17 05:36:21;;;;;;;42.40;29.60;;;6.10;99.90;;;;;;4987142;28;20236;-86
2021/11/17 05:39:01;;;;;;;42.42;29.27;;;6.10;99.90;;;;;;5001782;28;20199;-88
2021/11/17 05:41:40;;;;;;;44.53;27.52;;;6.10;99.90;;;;;;4992078;28;20216;-86
2021/11/17 05:44:11;;;;;;;42.60;27.75;;;5.90;99.90;;;;;;5025353;28;20193;-85
2021/11/17 05:47:12;;;;;;;50.30;29.55;;;6.10;99.90;;;;;;5021195;28;20211;-86
2021/11/17 05:49:58;;;;;;;35.20;26.27;;;6.00;99.90;;;;;;5024225;28;20512;-87
2021/11/17 05:52:41;;;;;;;35.97;24.73;;;6.00;99.90;;;;;;5000987;28;20203;-87
2021/11/17 05:55:38;;;;;;;39.03;27.70;;;5.90;99.90;;;;;;4999541;28;20284;-86
2021/11/17 05:58:21;;;;;;;53.00;28.38;;;6.10;99.90;;;;;;4994146;28;20250;-87
2021/11/17 06:01:14;;;;;;;40.38;28.65;;;6.20;99.90;;;;;;5001420;28;20201;-86
2021/11/17 06:03:58;;;;;;;48.25;29.25;;;6.10;99.90;;;;;;5005741;28;20533;-83
2021/11/17 06:06:25;;;;;;;49.83;30.30;;;6.00;99.90;;;;;;5021136;28;20227;-84
2021/11/17 06:08:54;;;;;;;40.90;27.60;;;5.80;99.90;;;;;;5025966;28;20207;-85
2021/11/17 06:11:31;;;;;;;49.15;30.13;;;5.90;99.90;;;;;;5026032;28;20216;-85
2021/11/17 06:14:00;;;;;;;45.95;30.88;;;6.00;99.90;;;;;;5025588;28;20262;-86
2021/11/17 06:16:29;;;;;;;43.88;29.92;;;6.00;99.90;;;;;;5007340;28;20234;-84
2021/11/17 06:18:57;;;;;;;45.92;29.67;;;6.00;99.90;;;;;;5021963;28;20204;-85
2021/11/17 06:21:24;;;;;;;44.47;28.27;;;6.00;99.90;;;;;;5006682;28;20205;-84
2021/11/17 06:23:58;;;;;;;46.70;27.70;;;6.10;99.90;;;;;;5023892;28;20255;-82
2021/11/17 06:26:29;;;;;;;50.78;28.90;;;6.10;99.90;;;;;;5017508;28;20474;-82
2021/11/17 06:29:06;;;;;;;48.10;28.27;;;6.00;99.90;;;;;;5024737;28;20285;-84
2021/11/17 06:31:37;;;;;;;47.78;27.00;;;6.00;99.90;;;;;;5006647;28;20510;-84
2021/11/17 06:34:28;;;;;;;44.22;28.98;;;6.00;99.90;;;;;;5022337;28;20200;-82
2021/11/17 06:36:57;;;;;;;40.78;29.25;;;6.00;99.90;;;;;;5024395;28;20293;-86
2021/11/17 06:39:27;;;;;;;43.75;26.95;;;5.90;99.90;;;;;;5007579;28;20375;-83
2021/11/17 06:41:56;;;;;;;50.58;29.25;;;5.80;99.90;;;;;;5003745;28;20443;-86
2021/11/17 06:44:24;;;;;;;43.10;27.58;;;6.00;99.90;;;;;;4996133;28;20206;-83
2021/11/17 06:46:52;;;;;;;40.97;27.48;;;6.00;99.90;;;;;;5018655;28;20586;-84
2021/11/17 06:49:20;;;;;;;40.38;27.63;;;5.90;99.90;;;;;;5003831;28;20258;-83
2021/11/17 06:51:48;;;;;;;46.47;29.30;;;5.90;99.90;;;;;;5017012;28;20553;-85
2021/11/17 06:54:16;;;;;;;43.13;28.02;;;5.90;99.90;;;;;;5005830;28;20207;-83
2021/11/17 06:56:44;;;;;;;41.80;27.77;;;5.80;99.90;;;;;;5006438;28;20415;-83
2021/11/17 06:59:11;;;;;;;46.80;29.50;;;5.80;99.90;;;;;;5022952;28;20232;-84
2021/11/17 07:01:39;;;;;;;55.08;28.73;;;5.90;99.90;;;;;;5004821;28;20205;-85
2021/11/17 07:04:07;;;;;;;54.60;31.58;;;6.10;99.90;;;;;;5005490;28;20573;-83
2021/11/17 07:06:34;;;;;;;53.72;28.48;;;6.10;99.90;;;;;;5004181;28;20367;-83
2021/11/17 07:09:03;;;;;;;44.67;27.60;;;6.10;99.90;;;;;;5005750;28;20208;-83
2021/11/17 07:11:37;;;;;;;42.92;28.77;;;6.10;99.90;;;;;;5006057;28;20238;-82
2021/11/17 07:14:05;;;;;;;45.50;29.27;;;6.00;99.90;;;;;;5005904;28;20287;-83
2021/11/17 07:16:33;;;;;;;49.40;27.83;;;6.10;99.90;;;;;;5023846;28;20287;-84
2021/11/17 07:19:02;;;;;;;49.83;30.10;;;6.40;99.90;;;;;;5005770;28;20502;-85
2021/11/17 07:21:30;;;;;;;42.13;28.95;;;6.30;99.90;;;;;;5022742;28;20204;-83
2021/11/17 07:23:57;;;;;;;44.35;27.63;;;6.30;99.90;;;;;;5023047;28;20294;-83
2021/11/17 07:26:25;;;;;;;46.95;31.17;;;6.40;99.90;;;;;;5005728;28;20263;-82
2021/11/17 07:28:52;;;;;;;47.40;27.88;;;6.40;99.90;;;;;;5022791;28;20205;-83
2021/11/17 07:31:20;;;;;;;40.33;27.60;;;6.50;99.90;;;;;;5022880;28;20211;-83
2021/11/17 07:33:47;;;;;;;39.13;27.65;;;6.30;99.90;;;;;;5023023;28;20204;-82
2021/11/17 07:36:16;;;;;;;39.67;26.75;;;6.40;99.90;;;;;;5021447;28;20226;-83
2021/11/17 07:38:44;;;;;;;48.38;26.92;;;6.50;99.90;;;;;;5021622;28;20199;-82
2021/11/17 07:41:12;;;;;;;43.80;25.63;;;6.60;99.90;;;;;;4995349;28;20221;-84
2021/11/17 07:43:41;;;;;;;41.70;25.63;;;6.60;99.90;;;;;;5016988;28;20223;-84
2021/11/17 07:46:09;;;;;;;42.28;27.60;;;6.70;99.90;;;;;;5021903;28;20563;-84
2021/11/17 07:48:37;;;;;;;44.17;27.88;;;6.70;99.90;;;;;;5022432;28;20270;-84
2021/11/17 07:51:06;;;;;;;40.83;26.33;;;7.00;99.90;;;;;;5022642;28;20271;-84
2021/11/17 07:53:34;;;;;;;47.55;29.40;;;7.20;99.90;;;;;;5004992;28;20270;-84
2021/11/17 07:56:03;;;;;;;42.33;26.58;;;7.10;99.90;;;;;;5022386;28;20204;-83
2021/11/17 07:58:40;;;;;;;46.78;29.50;;;7.20;99.90;;;;;;5016110;28;20204;-84
2021/11/17 08:01:09;;;;;;;37.97;28.20;;;7.20;99.90;;;;;;5021896;28;20212;-83
2021/11/17 08:03:40;;;;;;;40.03;25.13;;;7.10;99.90;;;;;;5021759;28;20208;-84
2021/11/17 08:06:10;;;;;;;38.85;25.63;;;7.10;99.90;;;;;;4999903;28;20204;-84
2021/11/17 08:08:37;;;;;;;43.00;27.40;;;7.20;99.90;;;;;;5003053;28;20263;-84
2021/11/17 08:11:09;;;;;;;41.03;23.83;;;7.20;99.90;;;;;;5021843;28;20236;-83
2021/11/17 08:13:37;;;;;;;47.90;28.70;;;7.20;99.90;;;;;;5021685;28;20231;-84
2021/11/17 08:16:08;;;;;;;46.28;26.48;;;7.50;99.90;;;;;;5004473;28;20267;-83
2021/11/17 08:18:38;;;;;;;43.08;25.42;;;7.70;99.90;;;;;;5012159;28;20227;-85
2021/11/17 08:21:08;;;;;;;40.40;26.65;;;7.70;99.90;;;;;;5004378;28;20447;-84
2021/11/17 08:23:36;;;;;;;44.97;30.15;;;7.80;99.90;;;;;;5022113;28;20299;-84
2021/11/17 08:26:05;;;;;;;42.25;25.02;;;8.00;99.90;;;;;;5005338;28;20243;-85
2021/11/17 08:28:33;;;;;;;38.42;26.60;;;8.00;99.90;;;;;;5022004;28;20279;-83
2021/11/17 08:31:00;;;;;;;35.25;25.80;;;8.00;99.90;;;;;;5022337;28;20279;-84
2021/11/17 08:33:28;;;;;;;39.92;27.27;;;8.10;99.90;;;;;;5021943;28;20228;-84
2021/11/17 08:35:55;;;;;;;40.50;23.50;;;8.00;99.90;;;;;;5022351;28;20510;-85
2021/11/17 08:38:24;;;;;;;47.47;26.80;;;8.10;99.90;;;;;;5003940;28;20601;-83
2021/11/17 08:40:56;;;;;;;43.70;30.20;;;8.20;99.90;;;;;;5021315;28;20220;-85
2021/11/17 08:43:23;;;;;;;42.22;30.55;;;8.30;99.90;;;;;;5013940;28;20203;-84
2021/11/17 08:45:52;;;;;;;42.22;28.48;;;8.60;99.90;;;;;;5021868;28;20197;-84
2021/11/17 08:48:23;;;;;;;44.33;25.40;;;8.60;99.90;;;;;;4999395;28;20205;-84
2021/11/17 08:50:52;;;;;;;39.72;29.27;;;8.80;99.90;;;;;;5004855;28;20570;-84
2021/11/17 08:53:25;;;;;;;36.83;26.20;;;9.20;99.90;;;;;;5015086;28;20200;-83
2021/11/17 08:55:53;;;;;;;40.47;29.30;;;9.30;99.90;;;;;;5021502;28;20212;-84
2021/11/17 08:58:22;;;;;;;49.65;32.78;;;9.50;99.90;;;;;;5004703;28;20221;-84
2021/11/17 09:00:50;;;;;;;42.63;29.20;;;9.90;99.90;;;;;;5004265;28;20197;-84
2021/11/17 09:03:19;;;;;;;47.30;32.25;;;10.10;99.90;;;;;;5004217;28;20243;-84
2021/11/17 09:05:50;;;;;;;45.10;28.35;;;10.30;99.90;;;;;;5004362;28;20223;-85
2021/11/17 09:08:19;;;;;;;35.83;23.80;;;10.50;99.90;;;;;;5020950;28;20200;-84
2021/11/17 09:10:54;;;;;;;40.92;28.73;;;10.50;99.90;;;;;;5021066;28;20205;-84
2021/11/17 09:13:22;;;;;;;37.38;25.05;;;10.70;99.90;;;;;;5010880;28;20243;-84
2021/11/17 09:15:51;;;;;;;40.67;26.10;;;10.50;99.90;;;;;;5004396;28;20236;-84
2021/11/17 09:18:22;;;;;;;41.10;30.10;;;10.60;99.90;;;;;;5021496;28;20220;-85
2021/11/17 09:20:50;;;;;;;37.05;23.60;;;10.60;99.90;;;;;;5021832;28;20200;-83
2021/11/17 09:23:18;;;;;;;35.05;26.98;;;10.60;99.90;;;;;;5004032;28;20244;-83
2021/11/17 09:25:47;;;;;;;43.75;27.52;;;10.70;99.90;;;;;;5021923;28;20245;-83
2021/11/17 09:28:19;;;;;;;41.03;26.92;;;10.80;99.90;;;;;;5004847;28;20201;-85
2021/11/17 09:30:48;;;;;;;29.27;25.45;;;11.20;99.90;;;;;;5004704;28;20428;-85
2021/11/17 09:33:16;;;;;;;39.03;25.95;;;11.20;99.90;;;;;;5004080;28;20495;-85
2021/11/17 09:35:45;;;;;;;44.75;26.73;;;11.30;99.90;;;;;;5002883;28;20311;-84
2021/11/17 09:38:14;;;;;;;36.50;25.65;;;11.60;99.90;;;;;;5020078;28;20484;-85
2021/11/17 09:41:05;;;;;;;33.65;23.35;;;11.40;99.90;;;;;;5002604;28;20208;-83
2021/11/17 09:43:38;;;;;;;31.40;25.13;;;11.60;99.90;;;;;;5004620;28;20481;-85
2021/11/17 09:46:07;;;;;;;31.52;22.08;;;11.60;99.90;;;;;;5003508;28;20351;-84
2021/11/17 09:48:38;;;;;;;40.65;25.52;;;11.30;99.90;;;;;;5021859;28;20226;-86
2021/11/17 09:51:27;;;;;;;39.60;24.35;;;11.30;99.90;;;;;;5005056;28;20203;-86
2021/11/17 09:54:22;;;;;;;35.17;22.73;;;11.00;99.90;;;;;;5004581;28;20210;-84
2021/11/17 09:56:58;;;;;;;32.58;22.65;;;10.60;99.90;;;;;;5011550;28;20214;-84
2021/11/17 09:59:35;;;;;;;35.60;24.50;;;10.60;99.90;;;;;;5019152;28;20206;-84
2021/11/17 10:02:14;;;;;;;41.10;24.63;;;10.60;99.90;;;;;;5022031;28;20344;-84
2021/11/17 10:05:00;;;;;;;47.97;26.80;;;10.60;99.90;;;;;;5019846;28;20204;-85
2021/11/17 10:11:16;;;;;;;39.22;23.95;;;11.00;99.90;;;;;;5013895;28;20440;-85
2021/11/17 10:13:59;;;;;;;28.75;22.20;;;10.80;99.90;;;;;;5002590;28;20308;-85
2021/11/17 10:16:27;;;;;;;29.45;19.65;;;10.50;99.90;;;;;;5015550;28;20205;-85
2021/11/17 10:19:23;;;;;;;33.55;21.73;;;10.20;99.90;;;;;;5020344;28;20228;-86
2021/11/17 10:22:13;;;;;;;36.53;22.17;;;10.00;99.90;;;;;;4996504;28;20208;-84
2021/11/17 10:24:45;;;;;;;33.58;22.70;;;9.90;99.90;;;;;;5012385;28;20298;-85
2021/11/17 10:27:20;;;;;;;26.77;19.25;;;9.90;99.90;;;;;;5006533;28;20259;-83
2021/11/17 10:30:00;;;;;;;34.58;23.40;;;9.90;99.90;;;;;;5008218;28;20217;-87
2021/11/17 10:32:58;;;;;;;27.90;19.63;;;9.80;99.90;;;;;;5023799;28;20206;-84
2021/11/17 10:35:29;;;;;;;34.38;22.95;;;9.70;99.90;;;;;;5006898;28;20210;-84
2021/11/17 10:38:10;;;;;;;30.52;22.30;;;9.70;99.90;;;;;;5024170;28;20573;-82
2021/11/17 10:40:53;;;;;;;29.67;22.65;;;9.80;99.90;;;;;;5016271;28;20498;-84
2021/11/17 10:43:57;;;;;;;25.40;20.73;;;9.90;99.90;;;;;;5016125;28;20248;-88
2021/11/17 10:46:31;;;;;;;30.88;21.38;;;10.00;99.90;;;;;;5010927;28;20268;-86
2021/11/17 10:49:05;;;;;;;28.13;21.13;;;10.00;99.90;;;;;;5022692;28;20241;-88
2021/11/17 10:51:47;;;;;;;35.05;23.20;;;9.90;99.90;;;;;;5005352;28;20206;-83
2021/11/17 10:54:20;;;;;;;36.00;24.95;;;9.80;99.90;;;;;;5023104;28;20233;-87
2021/11/17 10:57:09;;;;;;;29.88;21.50;;;10.00;99.90;;;;;;5018584;28;20213;-85
2021/11/17 10:59:38;;;;;;;33.95;22.58;;;10.00;99.90;;;;;;5005175;28;20201;-83
2021/11/17 11:02:07;;;;;;;34.38;24.15;;;9.90;99.90;;;;;;5005774;28;20495;-83
2021/11/17 11:04:46;;;;;;;36.95;22.83;;;9.90;99.90;;;;;;5004962;28;20202;-84
2021/11/17 11:07:27;;;;;;;35.25;22.27;;;9.90;99.90;;;;;;5021359;28;20305;-86
2021/11/17 11:10:31;;;;;;;33.08;21.33;;;10.10;99.90;;;;;;5023092;28;20236;-84
2021/11/17 11:13:01;;;;;;;34.67;23.40;;;10.10;99.90;;;;;;5022611;28;20206;-85
2021/11/17 11:15:36;;;;;;;41.00;25.85;;;10.10;99.90;;;;;;5005557;28;20243;-86
2021/11/17 11:18:09;;;;;;;39.13;25.10;;;9.90;99.90;;;;;;5022457;28;20309;-83
2021/11/17 11:20:47;;;;;;;37.08;22.98;;;9.80;99.90;;;;;;5023343;28;20239;-83
2021/11/17 11:23:25;;;;;;;33.13;21.42;;;9.80;99.90;;;;;;5023701;28;20231;-83
2021/11/17 11:26:09;;;;;;;32.80;21.70;;;9.80;99.90;;;;;;5020327;28;20193;-83
2021/11/17 11:28:40;;;;;;;37.80;25.10;;;9.80;99.90;;;;;;5022222;28;20205;-84
2021/11/17 11:31:09;;;;;;;31.77;21.77;;;9.80;99.90;;;;;;5022866;28;20247;-83
2021/11/17 11:33:54;;;;;;;39.95;23.60;;;9.90;99.90;;;;;;5022977;28;20211;-83
2021/11/17 11:36:22;;;;;;;31.77;21.75;;;9.90;99.90;;;;;;5022819;28;20200;-85
2021/11/17 11:38:59;;;;;;;34.40;23.80;;;10.00;99.90;;;;;;5005335;28;20221;-85
2021/11/17 11:41:29;;;;;;;36.83;23.40;;;9.90;99.90;;;;;;5023746;28;20202;-85
2021/11/17 11:44:23;;;;;;;33.00;23.27;;;9.90;99.90;;;;;;5023662;28;20210;-83
2021/11/17 11:47:10;;;;;;;33.08;21.48;;;10.10;99.90;;;;;;5010064;28;20225;-84
2021/11/17 11:50:28;;;;;;;36.50;23.38;;;10.20;99.90;;;;;;5003298;28;20508;-86
2021/11/17 11:53:16;;;;;;;42.58;27.77;;;10.20;99.90;;;;;;5000210;28;20270;-86
2021/11/17 11:55:52;;;;;;;35.55;22.35;;;10.20;99.90;;;;;;5016935;28;20495;-84
2021/11/17 11:58:24;;;;;;;34.90;22.80;;;10.20;99.90;;;;;;5001238;28;20224;-85
2021/11/17 12:01:24;;;;;;;34.00;23.80;;;10.40;99.90;;;;;;5022700;28;20226;-83
2021/11/17 12:03:58;;;;;;;32.70;22.25;;;10.20;99.90;;;;;;5005067;28;20251;-83
2021/11/17 12:06:30;;;;;;;31.42;21.08;;;10.30;99.90;;;;;;5005306;28;20414;-85
2021/11/17 12:09:23;;;;;;;35.58;23.02;;;10.30;99.90;;;;;;5023986;28;20236;-85
2021/11/17 12:11:58;;;;;;;38.13;23.40;;;10.10;99.90;;;;;;5002231;28;20332;-86
2021/11/17 12:14:45;;;;;;;32.72;21.73;;;10.20;99.90;;;;;;5017108;28;20251;-86
2021/11/17 12:17:22;;;;;;;36.08;21.65;;;10.30;99.90;;;;;;5019717;28;20218;-85
2021/11/17 12:19:54;;;;;;;30.27;19.92;;;10.40;99.90;;;;;;5004660;28;20371;-87
2021/11/17 12:22:39;;;;;;;35.63;23.25;;;10.20;99.90;;;;;;5004809;28;20208;-86
2021/11/17 12:25:21;;;;;;;36.33;22.80;;;10.20;99.90;;;;;;5021986;28;20198;-86
2021/11/17 12:27:58;;;;;;;33.03;21.40;;;10.30;99.90;;;;;;5017956;28;20288;-87
2021/11/17 12:30:41;;;;;;;39.67;24.10;;;10.00;99.90;;;;;;5003979;28;20521;-85
2021/11/17 12:33:15;;;;;;;35.60;21.33;;;9.90;99.90;;;;;;5022290;28;20245;-84
2021/11/17 12:35:58;;;;;;;38.15;23.88;;;10.00;99.90;;;;;;4995385;28;20391;-86
2021/11/17 12:38:27;;;;;;;31.33;21.90;;;10.00;99.90;;;;;;5013536;28;20268;-86
2021/11/17 12:40:59;;;;;;;39.33;24.40;;;10.00;99.90;;;;;;5020529;28;20205;-83
2021/11/17 12:43:33;;;;;;;37.35;23.30;;;9.90;99.90;;;;;;5021055;28;20197;-84
2021/11/17 12:46:31;;;;;;;30.55;22.23;;;9.90;99.90;;;;;;5004022;28;20206;-84
2021/11/17 12:49:16;;;;;;;40.33;24.70;;;9.90;99.90;;;;;;5018340;28;20216;-86
2021/11/17 12:51:56;;;;;;;34.88;21.77;;;9.90;99.90;;;;;;4999333;28;20212;-84
2021/11/17 12:54:35;;;;;;;34.78;22.38;;;9.70;99.90;;;;;;5015914;28;20204;-87
2021/11/17 12:57:16;;;;;;;35.92;24.23;;;9.60;99.90;;;;;;5003787;28;20254;-83
2021/11/17 12:59:48;;;;;;;29.65;19.95;;;9.60;99.90;;;;;;5020578;28;20259;-85
2021/11/17 13:02:21;;;;;;;37.38;23.52;;;9.70;99.90;;;;;;5021612;28;20199;-86
2021/11/17 13:05:13;;;;;;;31.95;21.33;;;9.70;99.90;;;;;;5021466;28;20201;-85
2021/11/17 13:07:47;;;;;;;34.03;21.80;;;9.70;99.90;;;;;;4998249;28;20503;-85
2021/11/17 13:10:34;;;;;;;35.97;21.75;;;9.60;99.90;;;;;;5004322;28;20205;-84
2021/11/17 13:13:16;;;;;;;30.13;19.48;;;9.60;99.90;;;;;;5022065;28;20204;-83
2021/11/17 13:16:08;;;;;;;31.45;22.45;;;9.80;99.90;;;;;;4999615;28;20268;-86
2021/11/17 13:18:41;;;;;;;36.65;21.60;;;9.80;99.90;;;;;;5020433;28;20549;-82
2021/11/17 13:21:21;;;;;;;37.58;21.55;;;9.70;99.90;;;;;;5021618;28;20197;-82
2021/11/17 13:24:00;;;;;;;34.08;21.23;;;9.70;99.90;;;;;;5003803;28;20544;-84
2021/11/17 13:26:51;;;;;;;40.47;23.27;;;9.70;99.90;;;;;;5019342;28;20240;-86
2021/11/17 13:29:32;;;;;;;34.17;23.63;;;9.50;99.90;;;;;;5014618;28;20318;-83
2021/11/17 13:32:08;;;;;;;39.83;22.48;;;9.60;99.90;;;;;;5023083;28;20200;-82
2021/11/17 13:34:40;;;;;;;38.05;20.60;;;9.60;99.90;;;;;;5014102;28;20228;-84
2021/11/17 13:37:32;;;;;;;31.67;21.23;;;9.60;99.90;;;;;;5022089;28;20224;-83
2021/11/17 13:40:23;;;;;;;31.75;21.17;;;9.40;99.90;;;;;;5017973;28;20201;-83
2021/11/17 13:42:51;;;;;;;34.22;21.42;;;9.30;99.90;;;;;;5002490;28;20229;-84
2021/11/17 13:45:27;;;;;;;40.75;23.33;;;9.40;99.90;;;;;;5021218;28;20197;-85
2021/11/17 13:47:55;;;;;;;39.88;24.25;;;9.30;99.90;;;;;;5003371;28;20414;-83
2021/11/17 13:50:30;;;;;;;31.92;23.15;;;9.50;99.90;;;;;;5019264;28;20208;-85
2021/11/17 13:52:57;;;;;;;33.72;21.23;;;9.60;99.90;;;;;;5014199;28;20203;-84
2021/11/17 13:55:29;;;;;;;37.33;21.95;;;9.40;99.90;;;;;;5021202;28;20193;-85
2021/11/17 13:57:57;;;;;;;35.70;21.08;;;9.10;99.90;;;;;;5022031;28;20411;-84
2021/11/17 14:00:26;;;;;;;39.55;20.83;;;9.20;99.90;;;;;;5023351;28;20237;-84
2021/11/17 14:02:54;;;;;;;31.60;21.10;;;9.10;99.90;;;;;;5024911;28;20205;-85
2021/11/17 14:05:25;;;;;;;30.45;20.50;;;9.20;99.90;;;;;;5017142;28;20197;-84
2021/11/17 14:07:53;;;;;;;41.70;22.17;;;9.20;99.90;;;;;;5006895;28;20202;-83
2021/11/17 14:10:22;;;;;;;33.30;20.20;;;9.10;99.90;;;;;;5007353;28;20198;-85
2021/11/17 14:12:51;;;;;;;33.90;20.95;;;9.00;99.90;;;;;;5006815;28;20373;-83
2021/11/17 14:15:20;;;;;;;33.88;21.40;;;8.90;99.90;;;;;;5007278;28;20197;-83
2021/11/17 14:17:50;;;;;;;32.97;21.38;;;8.80;99.90;;;;;;5007415;28;20197;-84
2021/11/17 14:20:18;;;;;;;29.98;20.70;;;8.80;99.90;;;;;;5007784;28;20329;-84
2021/11/17 14:22:46;;;;;;;35.92;23.35;;;8.80;99.90;;;;;;5023962;28;20271;-84
2021/11/17 14:25:17;;;;;;;30.73;20.63;;;8.80;99.90;;;;;;5019805;28;20197;-83
2021/11/17 14:27:49;;;;;;;33.30;20.13;;;8.90;99.90;;;;;;5001497;28;20269;-82
2021/11/17 14:30:24;;;;;;;32.53;20.27;;;8.80;99.90;;;;;;5022318;28;20215;-82
2021/11/17 14:32:53;;;;;;;31.75;21.08;;;8.80;99.90;;;;;;5016781;28;20223;-82
2021/11/17 14:35:25;;;;;;;40.72;23.90;;;8.90;99.90;;;;;;5012165;28;20279;-83
2021/11/17 14:37:55;;;;;;;33.03;22.45;;;8.80;99.90;;;;;;5023347;28;20264;-83
2021/11/17 14:40:25;;;;;;;32.40;19.35;;;8.80;99.90;;;;;;5023531;28;20205;-83
2021/11/17 14:42:53;;;;;;;33.17;20.55;;;8.80;99.90;;;;;;5002312;28;20450;-83
2021/11/17 14:45:25;;;;;;;31.52;20.35;;;8.70;99.90;;;;;;5005622;28;20259;-82
2021/11/17 14:47:53;;;;;;;31.98;19.58;;;8.80;99.90;;;;;;5014671;28;20403;-84
2021/11/17 14:50:22;;;;;;;28.05;19.02;;;8.80;99.90;;;;;;5019195;28;20207;-82
2021/11/17 14:52:50;;;;;;;33.63;19.45;;;8.70;99.90;;;;;;5005700;28;20197;-83
2021/11/17 14:55:24;;;;;;;31.83;20.92;;;8.70;99.90;;;;;;5003251;28;20273;-84
2021/11/17 14:57:53;;;;;;;31.92;20.85;;;8.70;99.90;;;;;;5016902;28;20490;-82
2021/11/17 15:00:29;;;;;;;34.38;21.70;;;8.70;99.90;;;;;;5005533;28;20197;-83
2021/11/17 15:02:56;;;;;;;38.15;21.13;;;8.80;99.90;;;;;;5005474;28;20458;-82
2021/11/17 15:05:26;;;;;;;31.73;18.13;;;8.80;99.90;;;;;;4998279;28;20255;-83
2021/11/17 15:07:54;;;;;;;31.88;21.00;;;9.00;99.90;;;;;;5023192;28;20207;-84
2021/11/17 15:10:23;;;;;;;33.30;19.40;;;8.90;99.90;;;;;;5019002;28;20197;-83
2021/11/17 15:12:51;;;;;;;28.13;18.13;;;8.80;99.90;;;;;;5005241;28;20216;-83
2021/11/17 15:15:23;;;;;;;43.10;19.20;;;8.90;99.90;;;;;;5023417;28;20201;-85
2021/11/17 15:17:51;;;;;;;35.70;21.25;;;8.80;99.90;;;;;;5005501;28;20201;-83
2021/11/17 15:20:19;;;;;;;30.00;18.85;;;8.70;99.90;;;;;;5001376;28;20221;-84
2021/11/17 15:22:46;;;;;;;23.38;15.95;;;8.70;99.90;;;;;;5023064;28;20197;-84
2021/11/17 15:25:17;;;;;;;28.00;18.85;;;8.80;99.90;;;;;;5023302;28;20415;-83
2021/11/17 15:27:52;;;;;;;36.47;20.35;;;8.70;99.90;;;;;;5023175;28;20542;-83
2021/11/17 15:30:27;;;;;;;32.85;21.38;;;8.80;99.90;;;;;;5015025;28;20350;-82
2021/11/17 15:32:56;;;;;;;27.25;17.25;;;8.70;99.90;;;;;;5022298;28;20201;-82
2021/11/17 15:35:26;;;;;;;30.45;17.85;;;8.70;99.90;;;;;;5014146;28;20241;-84
2021/11/17 15:37:54;;;;;;;32.80;18.50;;;8.60;99.90;;;;;;5017674;28;20201;-83
2021/11/17 15:40:26;;;;;;;27.83;16.52;;;8.70;99.90;;;;;;5019682;28;20224;-85
2021/11/17 15:42:54;;;;;;;27.15;17.10;;;8.80;99.90;;;;;;5022171;28;20204;-83
2021/11/17 15:45:21;;;;;;;23.52;16.60;;;9.00;99.90;;;;;;5017203;28;20308;-82
2021/11/17 15:47:50;;;;;;;27.35;17.00;;;8.80;99.90;;;;;;5021059;28;20204;-83
2021/11/17 15:50:22;;;;;;;31.67;19.92;;;8.90;99.90;;;;;;5023752;28;20197;-82
2021/11/17 15:52:50;;;;;;;34.17;18.08;;;8.80;99.90;;;;;;5024254;28;20201;-82
2021/11/17 15:55:18;;;;;;;25.70;17.45;;;8.80;99.90;;;;;;5018945;28;20537;-83